Time;durP1;ratioP1;P1;durP2;ratioP2;P2;SDS_P1;SDS_P2;PMS_P1;PMS_P2;Temp;Humidity;BMP_temperature;BMP_pressure;BME280_temperature;BME280_humidity;BME280_pressure;Samples;Min_cycle;Max_cycle;Signal;HPM_P1;HPM_P2
2021/08/23 00:00:17;;;;;;;10.38;3.25;;;;;;;13.90;100.00;97180.47;4996795;28;20054;-65
2021/08/23 00:02:43;;;;;;;9.25;3.45;;;;;;;13.82;100.00;97176.09;5001458;28;20054;-65
2021/08/23 00:05:11;;;;;;;6.05;2.85;;;;;;;13.89;100.00;97176.94;5011638;28;20085;-65
2021/08/23 00:07:37;;;;;;;8.73;3.03;;;;;;;14.06;100.00;97177.50;5002300;28;20189;-65
2021/08/23 00:10:03;;;;;;;7.10;3.08;;;;;;;14.20;100.00;97176.88;5007154;28;20126;-65
2021/08/23 00:12:29;;;;;;;5.72;2.50;;;;;;;14.37;100.00;97172.69;4999047;28;20042;-65
2021/08/23 00:14:55;;;;;;;9.80;3.42;;;;;;;14.29;100.00;97171.84;5002368;28;20042;-66
2021/08/23 00:17:20;;;;;;;6.53;3.00;;;;;;;14.15;100.00;97167.78;4998393;28;20042;-65
2021/08/23 00:19:46;;;;;;;9.93;3.05;;;;;;;14.07;100.00;97177.13;5004652;28;20431;-64
2021/08/23 00:24:56;;;;;;;8.68;2.88;;;;;;;13.95;100.00;97169.94;5025295;28;20084;-66
2021/08/23 00:27:21;;;;;;;7.63;2.90;;;;;;;14.03;100.00;97164.53;5004272;28;20088;-64
2021/08/23 00:29:47;;;;;;;6.32;3.08;;;;;;;14.04;100.00;97163.34;4994116;28;20042;-64
2021/08/23 00:32:13;;;;;;;7.35;2.88;;;;;;;14.09;100.00;97163.78;4998340;28;20038;-64
2021/08/23 00:34:38;;;;;;;6.93;2.97;;;;;;;14.18;100.00;97166.22;5005712;28;20386;-64
2021/08/23 00:37:05;;;;;;;8.43;3.05;;;;;;;14.22;100.00;97158.78;5011330;28;20041;-62
2021/08/23 00:39:31;;;;;;;5.03;2.53;;;;;;;14.25;100.00;97158.03;5012213;28;20062;-64
2021/08/23 00:41:56;;;;;;;5.50;2.67;;;;;;;14.15;100.00;97151.25;4986564;28;20116;-64
2021/08/23 00:44:21;;;;;;;7.80;2.50;;;;;;;14.16;100.00;97154.81;4997691;28;20916;-64
2021/08/23 00:46:47;;;;;;;6.85;2.78;;;;;;;14.25;100.00;97151.72;5002085;28;20041;-64
2021/08/23 00:49:13;;;;;;;6.50;2.60;;;;;;;14.37;100.00;97145.94;5004619;28;20371;-64
2021/08/23 00:51:39;;;;;;;9.40;2.92;;;;;;;14.63;100.00;97150.50;5001687;28;20047;-64
2021/08/23 00:54:05;;;;;;;7.20;3.00;;;;;;;14.79;100.00;97144.72;5003689;28;20129;-63
2021/08/23 00:56:30;;;;;;;6.45;2.88;;;;;;;14.94;100.00;97140.06;5015438;28;20042;-64
2021/08/23 00:58:56;;;;;;;5.00;2.58;;;;;;;15.07;100.00;97137.78;5001056;28;20045;-63
2021/08/23 01:01:37;;;;;;;11.60;3.05;;;;;;;15.13;100.00;97150.03;4997355;28;20153;-63
2021/08/23 01:04:02;;;;;;;8.15;2.53;;;;;;;15.17;100.00;97144.53;4997983;28;20080;-62
2021/08/23 01:06:30;;;;;;;9.82;2.65;;;;;;;15.09;100.00;97139.00;5009402;28;20049;-63
2021/08/23 01:08:59;;;;;;;5.88;2.20;;;;;;;15.14;100.00;97140.56;4996433;28;20038;-64
2021/08/23 01:11:26;;;;;;;6.82;3.10;;;;;;;15.07;100.00;97133.06;4977331;28;20069;-63
2021/08/23 01:13:52;;;;;;;5.30;2.63;;;;;;;15.09;100.00;97135.44;4981763;28;20046;-63
2021/08/23 01:16:18;;;;;;;5.38;2.53;;;;;;;15.13;100.00;97141.00;4976523;28;20483;-64
2021/08/23 01:18:44;;;;;;;7.63;2.65;;;;;;;15.02;100.00;97129.88;4980957;28;20045;-64
2021/08/23 01:21:11;;;;;;;8.63;2.55;;;;;;;14.86;100.00;97130.19;4987685;28;20046;-63
2021/08/23 01:23:44;;;;;;;6.35;3.22;;;;;;;14.52;100.00;97139.34;5017338;28;20102;-65
2021/08/23 01:26:11;;;;;;;8.35;2.85;;;;;;;14.27;100.00;97135.63;5013745;28;20048;-65
2021/08/23 01:29:03;;;;;;;9.60;4.38;;;;;;;14.13;100.00;97133.50;5017617;28;20437;-64
2021/08/23 01:31:51;;;;;;;7.45;3.55;;;;;;;14.01;100.00;97134.59;5018412;28;20136;-65
2021/08/23 01:34:17;;;;;;;6.88;3.63;;;;;;;13.99;100.00;97130.63;5014087;28;20042;-64
2021/08/23 01:36:43;;;;;;;12.48;4.03;;;;;;;14.00;100.00;97126.72;5021049;28;20053;-65
2021/08/23 01:39:08;;;;;;;5.97;4.22;;;;;;;14.10;100.00;97126.03;5003750;28;20048;-64
2021/08/23 01:41:33;;;;;;;6.53;3.70;;;;;;;14.13;100.00;97128.00;5000907;28;20103;-65
2021/08/23 01:43:59;;;;;;;5.68;3.03;;;;;;;14.14;100.00;97126.84;5000421;28;20104;-64
2021/08/23 01:46:31;;;;;;;13.48;3.55;;;;;;;14.28;100.00;97121.47;4982913;28;20137;-64
2021/08/23 01:48:58;;;;;;;10.38;4.07;;;;;;;14.30;100.00;97121.88;4980458;28;20042;-64
2021/08/23 01:51:25;;;;;;;7.18;2.92;;;;;;;14.30;100.00;97124.63;4976390;28;20089;-64
2021/08/23 01:53:50;;;;;;;4.63;2.58;;;;;;;14.37;100.00;97125.84;4980222;28;20125;-64
2021/08/23 01:56:15;;;;;;;8.23;3.85;;;;;;;14.41;100.00;97119.19;4976024;28;20607;-62
2021/08/23 01:58:41;;;;;;;9.38;3.00;;;;;;;14.41;100.00;97121.16;4981130;28;20680;-63
2021/08/23 02:01:06;;;;;;;4.63;2.90;;;;;;;14.47;100.00;97117.66;4958331;28;20399;-63
2021/08/23 02:03:32;;;;;;;8.43;3.00;;;;;;;14.52;100.00;97120.06;4978365;28;20042;-62
2021/08/23 02:05:57;;;;;;;10.38;3.15;;;;;;;14.52;100.00;97122.81;4963223;28;20076;-63
2021/08/23 02:08:22;;;;;;;5.65;3.03;;;;;;;14.52;100.00;97111.00;4970062;28;20045;-63
2021/08/23 02:10:48;;;;;;;4.32;2.53;;;;;;;14.59;100.00;97116.59;4979138;28;20116;-63
2021/08/23 02:13:13;;;;;;;6.13;2.90;;;;;;;14.68;100.00;97108.78;4983391;28;20053;-63
2021/08/23 02:15:39;;;;;;;5.47;2.70;;;;;;;14.71;100.00;97112.75;5000082;28;20187;-62
2021/08/23 02:18:04;;;;;;;5.63;2.83;;;;;;;14.67;100.00;97115.47;4994830;28;20345;-62
2021/08/23 02:20:30;;;;;;;4.85;2.55;;;;;;;14.61;100.00;97107.97;5002212;28;20437;-63
2021/08/23 02:22:55;;;;;;;6.65;2.75;;;;;;;14.58;100.00;97112.25;5011266;28;20049;-63
2021/08/23 02:25:22;;;;;;;8.52;3.33;;;;;;;14.56;100.00;97106.31;5009748;28;20066;-63
2021/08/23 02:27:49;;;;;;;6.82;2.80;;;;;;;14.68;100.00;97111.56;5007435;28;20044;-62
2021/08/23 02:30:14;;;;;;;9.30;2.90;;;;;;;14.74;100.00;97116.72;4998233;28;20170;-63
2021/08/23 02:32:40;;;;;;;8.65;2.90;;;;;;;14.71;100.00;97112.75;5003237;28;20061;-63
2021/08/23 02:35:06;;;;;;;6.00;2.95;;;;;;;14.69;100.00;97110.38;5001694;28;20070;-62
2021/08/23 02:37:31;;;;;;;6.53;2.83;;;;;;;14.60;100.00;97114.63;5016598;28;20041;-63
2021/08/23 02:39:57;;;;;;;4.35;2.40;;;;;;;14.60;100.00;97111.88;5011600;28;20084;-63
2021/08/23 02:42:22;;;;;;;7.22;2.90;;;;;;;14.50;100.00;97113.38;5033861;28;20045;-63
2021/08/23 02:44:47;;;;;;;15.30;3.80;;;;;;;14.33;100.00;97103.78;5014798;28;20048;-63
2021/08/23 02:47:13;;;;;;;5.80;3.08;;;;;;;13.91;100.00;97108.53;4996957;28;20085;-62
2021/08/23 02:49:38;;;;;;;9.63;3.42;;;;;;;13.68;100.00;97105.13;5017090;28;20131;-63
2021/08/23 02:52:04;;;;;;;5.78;3.17;;;;;;;13.46;100.00;97115.91;5014647;28;20184;-62
2021/08/23 02:54:29;;;;;;;8.77;3.50;;;;;;;13.35;100.00;97117.75;4998393;28;20048;-63
2021/08/23 02:56:55;;;;;;;6.10;3.80;;;;;;;13.35;100.00;97115.00;4998434;28;20064;-59
2021/08/23 02:59:20;;;;;;;4.97;2.97;;;;;;;13.32;100.00;97113.00;4993290;28;20038;-63
2021/08/23 03:01:46;;;;;;;9.07;3.10;;;;;;;13.22;100.00;97117.16;5009677;28;20038;-65
2021/08/23 03:04:11;;;;;;;6.95;3.55;;;;;;;13.18;100.00;97117.13;5006532;28;20049;-65
2021/08/23 03:06:37;;;;;;;9.05;3.55;;;;;;;13.14;100.00;97124.56;5015947;28;20080;-64
2021/08/23 03:09:03;;;;;;;5.70;3.65;;;;;;;13.15;100.00;97120.63;5016941;28;20623;-65
2021/08/23 03:11:30;;;;;;;7.35;3.42;;;;;;;13.42;100.00;97125.31;5012808;28;20041;-63
2021/08/23 03:13:56;;;;;;;8.35;3.40;;;;;;;13.41;100.00;97119.00;5005574;28;20116;-65
2021/08/23 03:16:21;;;;;;;6.18;3.80;;;;;;;13.46;100.00;97121.41;5006877;28;20307;-64
2021/08/23 03:18:47;;;;;;;7.78;3.60;;;;;;;13.48;100.00;97113.56;5003393;28;20048;-64
2021/08/23 03:21:12;;;;;;;6.85;3.63;;;;;;;13.40;100.00;97120.19;5007301;28;20042;-65
2021/08/23 03:23:38;;;;;;;6.18;3.50;;;;;;;13.23;100.00;97116.00;5019842;28;20045;-65
2021/08/23 03:26:05;;;;;;;8.25;3.85;;;;;;;13.15;100.00;97122.59;4999462;28;20052;-64
2021/08/23 03:28:30;;;;;;;6.32;3.45;;;;;;;13.11;100.00;97116.25;5013619;28;20069;-64
2021/08/23 03:30:57;;;;;;;6.93;3.28;;;;;;;13.01;100.00;97114.94;5021865;28;20017;-65
2021/08/23 03:33:22;;;;;;;10.50;3.22;;;;;;;12.98;100.00;97115.66;5014231;28;22104;-64
2021/08/23 03:35:48;;;;;;;8.63;3.97;;;;;;;13.14;100.00;97116.28;5008728;28;20045;-64
2021/08/23 03:38:14;;;;;;;6.90;3.42;;;;;;;13.16;100.00;97124.16;5014034;28;20045;-64
2021/08/23 03:40:40;;;;;;;13.82;7.07;;;;;;;12.99;100.00;97125.50;5010550;28;20134;-63
2021/08/23 03:43:06;;;;;;;7.72;3.65;;;;;;;12.84;100.00;97129.22;5009176;28;20053;-63
2021/08/23 03:45:31;;;;;;;4.82;2.63;;;;;;;12.69;100.00;97136.47;5010507;28;20042;-61
2021/08/23 03:47:56;;;;;;;13.40;3.38;;;;;;;12.65;100.00;97139.16;5001148;28;20042;-63
2021/08/23 03:50:22;;;;;;;4.63;2.53;;;;;;;12.80;100.00;97134.66;4997490;28;20710;-62
2021/08/23 03:52:48;;;;;;;6.28;2.90;;;;;;;12.78;100.00;97140.56;5004015;28;20140;-64
2021/08/23 03:55:14;;;;;;;7.55;3.03;;;;;;;12.76;100.00;97140.09;4997819;28;20045;-63
2021/08/23 03:57:39;;;;;;;5.45;2.53;;;;;;;12.85;100.00;97131.59;5006821;28;20041;-63
2021/08/23 04:00:06;;;;;;;4.28;2.38;;;;;;;12.92;100.00;97139.94;4998322;28;20050;-63
2021/08/23 04:02:32;;;;;;;7.25;2.80;;;;;;;12.99;100.00;97137.28;5004257;28;20046;-63
2021/08/23 04:04:58;;;;;;;7.55;2.85;;;;;;;13.01;100.00;97145.19;5013407;28;20384;-63
2021/08/23 04:07:23;;;;;;;6.90;2.65;;;;;;;12.98;100.00;97143.16;5006705;28;20076;-64
2021/08/23 04:09:49;;;;;;;4.70;2.78;;;;;;;12.95;100.00;97138.41;5016127;28;20050;-64
2021/08/23 04:12:14;;;;;;;7.40;2.95;;;;;;;12.69;100.00;97142.75;4977308;28;20045;-64
2021/08/23 04:14:40;;;;;;;6.25;3.00;;;;;;;12.49;100.00;97138.50;5006395;28;20095;-63
2021/08/23 04:17:05;;;;;;;9.45;3.15;;;;;;;12.33;100.00;97142.19;5000361;28;20080;-63
2021/08/23 04:19:32;;;;;;;6.35;3.30;;;;;;;12.22;100.00;97146.72;5013635;28;20115;-63
2021/08/23 04:21:57;;;;;;;8.57;2.72;;;;;;;12.18;100.00;97148.59;5014793;28;20451;-64
2021/08/23 04:24:23;;;;;;;7.55;2.92;;;;;;;12.13;100.00;97152.44;5016160;28;20041;-64
2021/08/23 04:26:49;;;;;;;4.78;3.08;;;;;;;12.09;100.00;97157.09;5022096;28;20060;-64
2021/08/23 04:29:15;;;;;;;7.50;2.30;;;;;;;12.07;100.00;97156.66;5007485;28;20049;-64
2021/08/23 04:31:41;;;;;;;5.03;2.10;;;;;;;11.93;100.00;97151.69;5007593;28;20041;-63
2021/08/23 04:34:07;;;;;;;8.93;2.40;;;;;;;11.89;100.00;97161.78;5004539;28;20049;-64
2021/08/23 04:36:32;;;;;;;5.20;2.38;;;;;;;11.85;100.00;97158.97;5022868;28;20058;-63
2021/08/23 04:38:58;;;;;;;4.80;2.65;;;;;;;11.81;100.00;97157.31;5006578;28;20080;-64
2021/08/23 04:41:23;;;;;;;5.32;2.67;;;;;;;11.79;100.00;97159.63;5005690;28;20046;-63
2021/08/23 04:43:48;;;;;;;5.40;2.60;;;;;;;11.85;100.00;97153.50;5005570;28;20045;-63
2021/08/23 04:46:14;;;;;;;4.25;2.47;;;;;;;11.95;100.00;97159.56;4990123;28;20049;-63
2021/08/23 04:48:39;;;;;;;7.40;2.78;;;;;;;12.06;100.00;97160.53;5014239;28;20132;-63
2021/08/23 04:51:06;;;;;;;7.35;2.25;;;;;;;12.27;100.00;97162.88;5012099;28;20094;-63
2021/08/23 04:53:32;;;;;;;5.07;1.98;;;;;;;12.17;100.00;97161.56;5021452;28;20402;-63
2021/08/23 04:55:57;;;;;;;3.85;2.28;;;;;;;12.14;100.00;97158.75;5022056;28;20061;-64
2021/08/23 04:58:23;;;;;;;5.07;1.70;;;;;;;12.18;100.00;97159.59;5024856;28;20487;-63
2021/08/23 05:00:49;;;;;;;2.50;1.33;;;;;;;12.43;100.00;97163.53;5003225;28;20171;-62
2021/08/23 05:03:15;;;;;;;3.80;1.83;;;;;;;12.61;100.00;97172.06;5007774;28;20495;-63
2021/08/23 05:05:42;;;;;;;4.75;2.10;;;;;;;12.73;100.00;97165.59;5020380;28;20045;-64
2021/08/23 05:08:07;;;;;;;5.00;2.53;;;;;;;12.70;100.00;97166.31;5003030;28;20045;-63
2021/08/23 05:10:33;;;;;;;4.35;2.53;;;;;;;12.63;100.00;97167.00;5020677;28;20038;-63
2021/08/23 05:12:59;;;;;;;3.05;2.10;;;;;;;12.52;100.00;97162.50;5014462;28;20218;-62
2021/08/23 05:15:24;;;;;;;3.30;2.20;;;;;;;12.56;100.00;97160.59;4991097;28;20099;-63
2021/08/23 05:17:50;;;;;;;3.60;2.05;;;;;;;13.00;100.00;97166.38;5016107;28;20045;-63
2021/08/23 05:20:16;;;;;;;6.55;2.72;;;;;;;13.93;100.00;97168.72;5007547;28;20046;-63
2021/08/23 05:22:42;;;;;;;4.15;1.98;;;;;;;14.85;100.00;97154.19;5012225;28;20139;-63
2021/08/23 05:25:07;;;;;;;7.78;2.80;;;;;;;15.94;95.93;97161.84;4996467;28;20045;-64
2021/08/23 05:27:33;;;;;;;15.90;3.55;;;;;;;16.90;87.92;97160.34;4998300;28;20073;-64
2021/08/23 05:30:05;;;;;;;12.13;4.00;;;;;;;18.04;80.22;97157.59;4998393;28;20041;-64
2021/08/23 05:32:31;;;;;;;4.47;2.45;;;;;;;19.26;75.13;97153.84;5003522;28;20045;-64
2021/08/23 05:34:57;;;;;;;3.75;2.20;;;;;;;20.21;68.78;97155.06;5011964;28;20168;-64
2021/08/23 05:37:22;;;;;;;6.85;2.40;;;;;;;20.54;67.77;97155.34;5015585;28;20435;-64
2021/08/23 05:39:48;;;;;;;3.72;2.20;;;;;;;19.55;68.83;97159.06;4989495;28;20034;-64
2021/08/23 05:42:14;;;;;;;6.20;2.50;;;;;;;18.51;74.88;97164.41;4996071;28;20042;-64
2021/08/23 05:44:40;;;;;;;7.10;3.08;;;;;;;17.24;82.17;97159.09;4982181;28;20585;-63
2021/08/23 05:47:05;;;;;;;5.15;3.53;;;;;;;15.39;93.44;97164.75;5001016;28;20399;-64
2021/08/23 05:49:31;;;;;;;8.02;4.43;;;;;;;14.71;99.21;97157.66;5011365;28;20044;-64
2021/08/23 05:51:57;;;;;;;8.85;4.85;;;;;;;14.40;100.00;97160.91;5008701;28;20077;-65
2021/08/23 05:54:22;;;;;;;8.20;3.97;;;;;;;14.17;100.00;97172.91;5008057;28;20050;-64
2021/08/23 05:56:48;;;;;;;10.25;4.60;;;;;;;14.25;100.00;97163.53;5020521;28;20041;-65
2021/08/23 05:59:13;;;;;;;10.07;3.90;;;;;;;14.53;100.00;97168.53;5006318;28;20395;-64
2021/08/23 06:01:39;;;;;;;9.10;3.67;;;;;;;15.27;100.00;97163.91;5010947;28;20060;-65
2021/08/23 06:04:04;;;;;;;5.93;3.15;;;;;;;16.55;95.33;97164.69;5010453;28;20041;-64
2021/08/23 06:06:30;;;;;;;6.22;2.40;;;;;;;18.17;87.18;97167.03;5007854;28;20041;-65
2021/08/23 06:08:55;;;;;;;5.80;2.22;;;;;;;19.13;78.76;97172.25;5007461;28;20414;-65
2021/08/23 06:11:20;;;;;;;3.00;1.90;;;;;;;20.02;75.12;97178.75;5016765;28;20046;-65
2021/08/23 06:13:47;;;;;;;4.93;2.70;;;;;;;21.33;70.58;97167.94;5015181;28;20045;-65
2021/08/23 06:16:13;;;;;;;7.20;2.15;;;;;;;22.66;64.64;97174.31;5004715;28;20377;-65
2021/08/23 06:18:38;;;;;;;5.43;2.30;;;;;;;22.88;60.12;97176.56;5013667;28;20053;-65
2021/08/23 06:21:03;;;;;;;3.72;1.85;;;;;;;22.93;59.37;97170.47;4995744;28;20103;-64
2021/08/23 06:23:29;;;;;;;4.75;2.10;;;;;;;23.06;61.94;97170.56;5003194;28;20191;-65
2021/08/23 06:25:54;;;;;;;5.60;2.47;;;;;;;23.16;59.81;97172.31;5019172;28;20050;-64
2021/08/23 06:28:20;;;;;;;6.57;2.60;;;;;;;23.53;59.29;97164.50;5000389;28;20041;-64
2021/08/23 06:30:46;;;;;;;3.90;2.10;;;;;;;22.23;63.78;97168.91;5004775;28;20495;-64
2021/08/23 06:33:12;;;;;;;5.57;2.10;;;;;;;21.79;65.02;97173.84;4999670;28;20099;-64
2021/08/23 06:35:37;;;;;;;7.18;2.35;;;;;;;22.00;64.27;97172.59;5006469;28;20053;-64
2021/08/23 06:38:03;;;;;;;3.97;1.88;;;;;;;22.18;63.25;97169.41;5005455;28;20069;-64
2021/08/23 06:40:28;;;;;;;3.08;1.48;;;;;;;22.18;63.74;97167.41;5004486;28;20045;-64
2021/08/23 06:42:54;;;;;;;6.50;2.00;;;;;;;21.80;64.43;97169.84;5015672;28;20049;-65
2021/08/23 06:45:19;;;;;;;3.35;2.13;;;;;;;21.51;65.18;97162.06;5003493;28;20144;-65
2021/08/23 06:47:45;;;;;;;7.63;1.92;;;;;;;21.75;65.07;97176.69;5004707;28;20046;-66
2021/08/23 06:50:10;;;;;;;3.33;1.60;;;;;;;;;;5008801;28;20129;-66
2021/08/23 06:52:37;;;;;;;3.70;1.77;;;;;;;21.49;65.75;97170.84;5013283;28;20483;-65
2021/08/23 06:55:03;;;;;;;6.13;2.10;;;;;;;21.52;66.35;97163.63;5007690;28;20121;-64
2021/08/23 06:57:28;;;;;;;5.53;2.15;;;;;;;21.35;66.12;97165.50;5001354;28;20204;-64
2021/08/23 06:59:54;;;;;;;4.28;1.92;;;;;;;21.51;65.71;97162.06;5012684;28;20498;-65
2021/08/23 07:02:19;;;;;;;5.78;1.90;;;;;;;21.60;65.05;97158.69;5010573;28;20037;-65
2021/08/23 07:04:48;;;;;;;4.75;1.80;;;;;;;21.19;67.09;97161.44;5013555;28;20045;-64
2021/08/23 07:07:14;;;;;;;5.78;2.05;;;;;;;21.36;65.63;97164.31;5007033;28;20068;-65
2021/08/23 07:09:39;;;;;;;6.55;1.90;;;;;;;21.43;66.09;97160.59;5007650;28;20041;-66
2021/08/23 07:12:05;;;;;;;4.88;1.80;;;;;;;20.71;68.59;97156.31;5004462;28;20068;-64
2021/08/23 07:14:31;;;;;;;2.95;1.98;;;;;;;20.54;69.14;97158.91;5006469;28;20140;-64
2021/08/23 07:16:56;;;;;;;2.90;1.38;;;;;;;20.40;70.39;97157.16;5013957;28;20152;-63
2021/08/23 07:19:22;;;;;;;6.45;1.52;;;;;;;20.97;69.26;97154.66;5018874;28;20847;-63
2021/08/23 07:21:47;;;;;;;4.47;1.60;;;;;;;21.75;66.90;97154.38;5005785;28;20041;-65
2021/08/23 07:24:13;;;;;;;7.35;1.50;;;;;;;22.95;62.99;97156.06;5008571;28;20113;-64
2021/08/23 07:26:38;;;;;;;3.67;2.00;;;;;;;23.00;61.79;97152.75;5024894;28;20045;-65
2021/08/23 07:29:04;;;;;;;5.93;1.55;;;;;;;24.35;57.44;97152.94;5012856;28;20042;-64
2021/08/23 07:31:29;;;;;;;2.53;1.23;;;;;;;24.53;55.30;97152.41;5007320;28;20049;-64
2021/08/23 07:33:55;;;;;;;3.92;1.63;;;;;;;24.94;54.33;97156.25;5001096;28;20192;-64
2021/08/23 07:36:20;;;;;;;8.07;1.67;;;;;;;25.02;53.68;97161.63;4995951;28;20145;-64
2021/08/23 07:38:45;;;;;;;4.70;1.80;;;;;;;24.64;54.61;97154.06;5003505;28;20066;-64
2021/08/23 07:41:11;;;;;;;4.45;1.40;;;;;;;25.21;53.67;97154.16;5000780;28;20185;-64
2021/08/23 07:43:36;;;;;;;6.43;1.60;;;;;;;24.62;55.14;97157.31;5011484;28;20050;-63
2021/08/23 07:46:02;;;;;;;3.85;1.40;;;;;;;23.68;57.73;97162.09;4992565;28;20056;-64
2021/08/23 07:48:27;;;;;;;4.70;2.30;;;;;;;23.45;59.79;97155.53;4985386;28;20108;-63
2021/08/23 07:50:53;;;;;;;5.07;1.50;;;;;;;24.08;57.96;97158.19;5017126;28;20038;-63
2021/08/23 07:53:18;;;;;;;3.50;1.60;;;;;;;25.28;53.10;97153.94;4998564;28;20046;-64
2021/08/23 07:55:44;;;;;;;4.28;1.48;;;;;;;26.13;49.98;97157.69;5009731;28;20038;-63
2021/08/23 07:58:10;;;;;;;3.00;1.25;;;;;;;26.17;48.29;97160.34;4997339;28;20081;-63
2021/08/23 08:00:35;;;;;;;2.17;1.17;;;;;;;26.37;48.63;97152.31;5003161;28;20133;-64
2021/08/23 08:03:01;;;;;;;4.38;1.80;;;;;;;26.69;45.41;97147.47;5002284;28;20466;-63
2021/08/23 08:05:26;;;;;;;3.00;1.35;;;;;;;26.28;46.21;97146.66;4997121;28;20050;-63
2021/08/23 08:07:52;;;;;;;4.00;1.52;;;;;;;27.32;44.23;97152.91;5007772;28;20045;-63
2021/08/23 08:10:17;;;;;;;3.28;1.40;;;;;;;27.22;44.93;97146.44;4997278;28;20124;-63
2021/08/23 08:12:43;;;;;;;3.17;1.40;;;;;;;26.42;44.87;97148.91;4998369;28;20044;-64
2021/08/23 08:15:10;;;;;;;3.13;1.60;;;;;;;26.89;44.47;97153.44;4994256;28;20050;-64
2021/08/23 08:17:35;;;;;;;4.57;1.30;;;;;;;27.13;43.91;97149.25;5002548;28;20069;-63
2021/08/23 08:20:01;;;;;;;4.80;1.15;;;;;;;26.90;45.75;97151.41;5002367;28;20139;-63
2021/08/23 08:22:26;;;;;;;1.98;0.88;;;;;;;25.23;47.01;97149.69;4997755;28;20145;-63
2021/08/23 08:24:52;;;;;;;4.78;1.17;;;;;;;25.32;48.16;97151.81;5014762;28;20176;-63
2021/08/23 08:27:17;;;;;;;4.18;1.40;;;;;;;25.55;48.32;97147.75;5008929;28;20073;-63
2021/08/23 08:29:43;;;;;;;2.40;1.10;;;;;;;24.85;49.50;97144.97;5008271;28;20038;-63
2021/08/23 08:32:08;;;;;;;3.65;2.00;;;;;;;25.02;50.09;97150.41;5003318;28;20144;-64
2021/08/23 08:34:34;;;;;;;3.35;1.50;;;;;;;24.72;48.86;97145.00;4987131;28;20060;-64
2021/08/23 08:37:00;;;;;;;6.05;1.65;;;;;;;24.33;51.91;97140.63;5013389;28;20107;-64
2021/08/23 08:39:25;;;;;;;4.40;1.65;;;;;;;24.59;50.92;97138.63;5003960;28;20056;-65
2021/08/23 08:41:50;;;;;;;3.92;1.38;;;;;;;24.46;50.39;97135.78;4999887;28;20064;-64
2021/08/23 08:44:16;;;;;;;3.35;1.52;;;;;;;24.45;50.49;97125.03;5004587;28;20506;-65
2021/08/23 08:46:42;;;;;;;5.05;1.45;;;;;;;23.77;52.44;97134.28;5008900;28;20042;-64
2021/08/23 08:49:11;;;;;;;4.05;1.50;;;;;;;24.89;49.66;97133.63;5002758;28;20433;-64
2021/08/23 08:51:38;;;;;;;3.27;1.47;;;;;;;26.32;46.11;97139.66;5005869;28;20037;-63
2021/08/23 08:54:04;;;;;;;4.97;1.30;;;;;;;27.05;43.94;97138.31;4996908;28;20371;-64
2021/08/23 08:56:33;;;;;;;3.53;1.30;;;;;;;25.91;44.54;97138.81;4998422;28;20042;-63
2021/08/23 08:59:02;;;;;;;3.03;1.40;;;;;;;25.32;45.85;97135.75;4990837;28;20086;-64
2021/08/23 09:01:27;;;;;;;2.42;1.05;;;;;;;25.35;46.14;97126.44;4986273;28;20046;-63
2021/08/23 09:04:00;;;;;;;4.53;1.30;;;;;;;25.83;43.37;97139.53;5000382;28;20096;-62
2021/08/23 09:06:25;;;;;;;3.13;1.25;;;;;;;26.09;42.27;97146.59;4993795;28;20069;-62
2021/08/23 09:08:51;;;;;;;2.72;1.10;;;;;;;25.68;44.44;97142.88;4999374;28;20510;-66
2021/08/23 09:11:19;;;;;;;2.78;1.73;;;;;;;25.44;44.86;97139.72;4994180;28;20037;-65
2021/08/23 09:14:16;;;;;;;5.03;2.33;;;;;;;26.33;43.12;97141.22;5004456;28;20106;-65
2021/08/23 09:16:43;;;;;;;3.45;1.20;;;;;;;26.55;43.41;97143.16;4966390;28;20057;-64
2021/08/23 09:19:21;;;;;;;3.08;1.35;;;;;;;26.58;42.82;97147.88;5001411;28;20038;-64
2021/08/23 09:21:46;;;;;;;5.05;1.55;;;;;;;26.21;43.78;97136.50;5001865;28;20042;-64
2021/08/23 09:24:19;;;;;;;3.95;1.17;;;;;;;26.63;42.59;97136.06;4990831;28;20124;-65
2021/08/23 09:26:44;;;;;;;3.15;0.98;;;;;;;26.17;42.45;97132.28;5002316;28;20057;-64
2021/08/23 09:29:10;;;;;;;3.80;1.38;;;;;;;25.37;44.38;97135.19;4991938;28;20050;-64
2021/08/23 09:31:38;;;;;;;5.18;1.33;;;;;;;24.62;46.69;97126.53;5000607;28;20490;-64
2021/08/23 09:34:08;;;;;;;2.97;1.38;;;;;;;24.11;48.21;97134.91;4997395;28;20148;-63
2021/08/23 09:36:34;;;;;;;4.85;1.30;;;;;;;25.21;45.43;97135.34;5001160;28;20062;-65
2021/08/23 09:39:00;;;;;;;2.83;1.15;;;;;;;25.93;44.26;97129.97;5000564;28;20092;-65
2021/08/23 09:41:26;;;;;;;3.50;1.30;;;;;;;27.35;41.09;97132.25;4994929;28;20045;-64
2021/08/23 09:44:05;;;;;;;3.08;1.15;;;;;;;27.06;41.13;97123.03;5004302;28;20083;-62
2021/08/23 09:46:34;;;;;;;;;;;;;;;27.32;39.91;97127.59;5001116;28;20153;-64
2021/08/23 09:49:05;;;;;;;2.30;1.00;;;;;;;28.18;38.28;97118.84;4996506;28;19917;-61
2021/08/23 09:51:36;;;;;;;1.95;1.02;;;;;;;28.62;37.82;97113.97;4996851;28;20038;-65
2021/08/23 09:54:10;;;;;;;5.10;1.15;;;;;;;29.03;36.15;97117.13;5011938;28;20034;-63
2021/08/23 09:56:42;;;;;;;3.20;1.10;;;;;;;28.59;36.80;97119.31;5017442;28;20660;-63
2021/08/23 09:59:11;;;;;;;3.90;1.13;;;;;;;27.85;37.63;97121.56;5004695;28;20049;-63
2021/08/23 10:01:36;;;;;;;3.15;1.05;;;;;;;27.56;38.57;97124.91;5005191;28;20064;-62
2021/08/23 10:04:06;;;;;;;2.97;1.23;;;;;;;27.44;38.79;97119.00;5019068;28;20501;-63
2021/08/23 10:06:37;;;;;;;3.03;1.08;;;;;;;27.65;38.40;97124.91;5010260;28;20427;-63
2021/08/23 10:09:05;;;;;;;2.65;1.05;;;;;;;28.57;36.71;97112.59;5014242;28;20034;-63
2021/08/23 10:11:35;;;;;;;2.80;0.90;;;;;;;27.96;37.25;97119.06;5026157;28;20508;-63
2021/08/23 10:14:00;;;;;;;2.78;1.13;;;;;;;27.52;38.38;97115.84;5014307;28;20797;-64
2021/08/23 10:16:28;;;;;;;5.53;1.08;;;;;;;27.04;38.30;97116.28;4994977;28;21019;-63
2021/08/23 10:18:53;;;;;;;3.95;1.15;;;;;;;26.97;40.31;97110.97;5018087;28;20124;-63
2021/08/23 10:21:20;;;;;;;2.60;1.00;;;;;;;26.42;41.09;97118.00;5018958;28;20132;-64
2021/08/23 10:23:48;;;;;;;3.08;1.83;;;;;;;25.92;41.25;97103.88;5013094;28;20046;-64
2021/08/23 10:26:14;;;;;;;5.82;2.72;;;;;;;25.36;43.32;97105.56;5016564;28;20467;-64
2021/08/23 10:28:39;;;;;;;2.70;1.02;;;;;;;25.65;40.92;97107.31;5007542;28;20121;-63
2021/08/23 10:31:09;;;;;;;3.15;1.38;;;;;;;25.25;42.84;97104.41;5001569;28;20801;-65
2021/08/23 10:33:37;;;;;;;3.10;1.08;;;;;;;25.22;43.77;97103.25;5005965;28;20161;-62
2021/08/23 10:36:06;;;;;;;2.30;0.93;;;;;;;25.03;42.88;97102.34;5004655;28;20042;-64
2021/08/23 10:38:33;;;;;;;4.68;1.13;;;;;;;25.31;41.21;97103.34;5004017;28;20049;-63
2021/08/23 10:41:25;;;;;;;2.83;1.27;;;;;;;25.35;40.21;97089.19;5010494;28;20034;-65
2021/08/23 10:43:57;;;;;;;3.10;0.90;;;;;;;25.89;38.79;97084.38;5005219;28;20049;-63
2021/08/23 10:46:22;;;;;;;2.25;0.98;;;;;;;26.02;40.40;97084.31;5006721;28;20065;-65
2021/08/23 10:48:49;;;;;;;3.10;1.00;;;;;;;25.98;40.14;97087.25;5013302;28;20096;-64
2021/08/23 10:51:26;;;;;;;3.13;1.00;;;;;;;25.57;41.78;97083.59;5001560;28;20443;-64
2021/08/23 10:53:52;;;;;;;3.15;1.05;;;;;;;25.56;41.10;97080.00;5006778;28;20446;-63
2021/08/23 10:56:18;;;;;;;3.97;1.02;;;;;;;25.82;41.60;97071.44;4995332;28;20125;-64
2021/08/23 10:58:49;;;;;;;3.97;1.13;;;;;;;25.58;42.72;97067.56;5000631;28;20121;-64
2021/08/23 11:01:22;;;;;;;4.43;1.45;;;;;;;26.12;42.40;97078.28;5001142;28;20042;-64
2021/08/23 11:04:04;;;;;;;3.83;1.40;;;;;;;25.69;42.70;97071.50;5005844;28;20042;-62
2021/08/23 11:06:30;;;;;;;2.67;0.90;;;;;;;25.83;43.30;97081.41;5003998;28;20092;-62
2021/08/23 11:09:10;;;;;;;1.75;0.60;;;;;;;25.24;45.32;97083.97;5006448;28;20049;-63
2021/08/23 11:11:37;;;;;;;3.80;1.30;;;;;;;24.47;46.27;97081.38;5004142;28;20427;-63
2021/08/23 11:14:14;;;;;;;4.43;1.27;;;;;;;24.07;47.13;97092.25;4998984;28;20132;-65
2021/08/23 11:16:39;;;;;;;3.55;1.27;;;;;;;23.93;48.73;97088.69;5005392;28;20135;-62
2021/08/23 11:19:06;;;;;;;3.50;1.08;;;;;;;24.13;47.38;97091.25;5003148;28;20038;-65
2021/08/23 11:21:31;;;;;;;3.30;1.30;;;;;;;23.76;48.76;97079.56;5006197;28;20099;-63
2021/08/23 11:24:05;;;;;;;4.43;1.33;;;;;;;23.60;47.58;97079.66;5009607;28;20048;-64
2021/08/23 11:26:30;;;;;;;3.75;0.95;;;;;;;24.27;47.34;97073.22;5014018;28;20054;-64
2021/08/23 11:29:06;;;;;;;5.20;2.47;;;;;;;24.22;47.83;97077.38;5009211;28;20499;-62